sensor_id;sensor_type;location;lat;lon;timestamp;P1;durP1;ratioP1;P2;durP2;ratioP2
2320;SDS011;15376;48.540;9.268;2023-09-19T00:01:05;1.90;;;1.70;;
2320;SDS011;15376;48.540;9.268;2023-09-19T00:03:34;1.80;;;1.70;;
2320;SDS011;15376;48.540;9.268;2023-09-19T00:06:04;2.80;;;1.97;;
2320;SDS011;15376;48.540;9.268;2023-09-19T00:08:30;2.23;;;1.50;;
2320;SDS011;15376;48.540;9.268;2023-09-19T00:10:56;3.30;;;2.03;;
2320;SDS011;15376;48.540;9.268;2023-09-19T00:13:21;1.60;;;1.50;;
2320;SDS011;15376;48.540;9.268;2023-09-19T00:15:47;1.80;;;1.70;;
2320;SDS011;15376;48.540;9.268;2023-09-19T00:18:19;4.37;;;2.03;;
2320;SDS011;15376;48.540;9.268;2023-09-19T00:20:46;2.47;;;1.57;;
2320;SDS011;15376;48.540;9.268;2023-09-19T00:23:16;1.70;;;1.60;;
2320;SDS011;15376;48.540;9.268;2023-09-19T00:25:42;2.47;;;1.60;;
2320;SDS011;15376;48.540;9.268;2023-09-19T00:28:07;1.67;;;1.43;;
2320;SDS011;15376;48.540;9.268;2023-09-19T00:30:36;1.43;;;1.33;;
2320;SDS011;15376;48.540;9.268;2023-09-19T00:33:03;1.87;;;1.53;;
2320;SDS011;15376;48.540;9.268;2023-09-19T00:35:31;1.40;;;1.30;;
2320;SDS011;15376;48.540;9.268;2023-09-19T00:37:56;1.40;;;1.30;;
2320;SDS011;15376;48.540;9.268;2023-09-19T00:40:21;1.73;;;1.63;;
2320;SDS011;15376;48.540;9.268;2023-09-19T00:42:47;1.53;;;1.43;;
2320;SDS011;15376;48.540;9.268;2023-09-19T00:45:14;3.13;;;1.73;;
2320;SDS011;15376;48.540;9.268;2023-09-19T00:47:43;2.60;;;2.43;;
2320;SDS011;15376;48.540;9.268;2023-09-19T00:50:14;1.30;;;1.20;;
2320;SDS011;15376;48.540;9.268;2023-09-19T00:52:42;1.70;;;1.60;;
2320;SDS011;15376;48.540;9.268;2023-09-19T00:55:08;1.90;;;1.40;;
2320;SDS011;15376;48.540;9.268;2023-09-19T00:57:35;1.77;;;1.67;;
2320;SDS011;15376;48.540;9.268;2023-09-19T01:00:03;2.13;;;1.60;;
2320;SDS011;15376;48.540;9.268;2023-09-19T01:02:31;2.37;;;2.17;;
2320;SDS011;15376;48.540;9.268;2023-09-19T01:04:58;1.70;;;1.40;;
2320;SDS011;15376;48.540;9.268;2023-09-19T01:07:24;1.53;;;1.43;;
2320;SDS011;15376;48.540;9.268;2023-09-19T01:09:50;2.20;;;1.53;;
2320;SDS011;15376;48.540;9.268;2023-09-19T01:12:17;1.80;;;1.70;;
2320;SDS011;15376;48.540;9.268;2023-09-19T01:14:54;1.50;;;1.40;;
2320;SDS011;15376;48.540;9.268;2023-09-19T01:17:58;1.50;;;1.40;;
2320;SDS011;15376;48.540;9.268;2023-09-19T01:20:49;2.43;;;1.80;;
2320;SDS011;15376;48.540;9.268;2023-09-19T01:26:26;1.70;;;1.60;;
2320;SDS011;15376;48.540;9.268;2023-09-19T01:31:59;2.03;;;1.83;;
2320;SDS011;15376;48.540;9.268;2023-09-19T01:34:43;1.70;;;1.60;;
2320;SDS011;15376;48.540;9.268;2023-09-19T01:37:10;2.30;;;1.90;;
2320;SDS011;15376;48.540;9.268;2023-09-19T01:39:36;2.93;;;1.90;;
2320;SDS011;15376;48.540;9.268;2023-09-19T01:47:41;2.00;;;1.90;;
2320;SDS011;15376;48.540;9.268;2023-09-19T01:52:56;1.90;;;1.70;;
2320;SDS011;15376;48.540;9.268;2023-09-19T01:55:26;1.73;;;1.63;;
2320;SDS011;15376;48.540;9.268;2023-09-19T01:57:58;4.47;;;2.10;;
2320;SDS011;15376;48.540;9.268;2023-09-19T02:00:29;1.73;;;1.60;;
2320;SDS011;15376;48.540;9.268;2023-09-19T02:02:57;2.30;;;2.10;;
2320;SDS011;15376;48.540;9.268;2023-09-19T02:05:24;2.60;;;1.77;;
2320;SDS011;15376;48.540;9.268;2023-09-19T02:07:51;2.40;;;1.80;;
2320;SDS011;15376;48.540;9.268;2023-09-19T02:10:17;3.87;;;1.77;;
2320;SDS011;15376;48.540;9.268;2023-09-19T02:12:43;3.37;;;1.80;;
2320;SDS011;15376;48.540;9.268;2023-09-19T02:15:08;2.60;;;2.10;;
2320;SDS011;15376;48.540;9.268;2023-09-19T02:17:34;2.30;;;2.10;;
2320;SDS011;15376;48.540;9.268;2023-09-19T02:19:59;3.50;;;2.10;;
2320;SDS011;15376;48.540;9.268;2023-09-19T02:22:25;4.60;;;1.97;;
2320;SDS011;15376;48.540;9.268;2023-09-19T02:24:52;3.00;;;2.00;;
2320;SDS011;15376;48.540;9.268;2023-09-19T02:27:18;3.40;;;2.07;;
2320;SDS011;15376;48.540;9.268;2023-09-19T02:29:44;1.90;;;1.80;;
2320;SDS011;15376;48.540;9.268;2023-09-19T02:32:10;3.33;;;2.40;;
2320;SDS011;15376;48.540;9.268;2023-09-19T02:34:35;2.70;;;1.70;;
2320;SDS011;15376;48.540;9.268;2023-09-19T02:37:04;2.83;;;2.10;;
2320;SDS011;15376;48.540;9.268;2023-09-19T02:39:30;2.93;;;2.30;;
2320;SDS011;15376;48.540;9.268;2023-09-19T02:41:56;2.73;;;2.20;;
2320;SDS011;15376;48.540;9.268;2023-09-19T02:44:22;2.33;;;2.13;;
2320;SDS011;15376;48.540;9.268;2023-09-19T02:46:48;3.27;;;2.30;;
2320;SDS011;15376;48.540;9.268;2023-09-19T02:49:14;3.27;;;1.93;;
2320;SDS011;15376;48.540;9.268;2023-09-19T02:51:39;3.20;;;2.43;;
2320;SDS011;15376;48.540;9.268;2023-09-19T02:54:05;2.70;;;2.23;;
2320;SDS011;15376;48.540;9.268;2023-09-19T02:56:31;5.10;;;2.20;;
2320;SDS011;15376;48.540;9.268;2023-09-19T02:58:57;2.87;;;2.50;;
2320;SDS011;15376;48.540;9.268;2023-09-19T03:01:23;2.27;;;2.07;;
2320;SDS011;15376;48.540;9.268;2023-09-19T03:03:48;2.33;;;2.13;;
2320;SDS011;15376;48.540;9.268;2023-09-19T03:06:14;2.47;;;2.13;;
2320;SDS011;15376;48.540;9.268;2023-09-19T03:08:40;3.47;;;2.40;;
2320;SDS011;15376;48.540;9.268;2023-09-19T03:11:10;2.30;;;2.10;;
2320;SDS011;15376;48.540;9.268;2023-09-19T03:13:36;3.27;;;2.20;;
2320;SDS011;15376;48.540;9.268;2023-09-19T03:16:03;3.20;;;2.70;;
2320;SDS011;15376;48.540;9.268;2023-09-19T03:18:31;4.23;;;3.07;;
2320;SDS011;15376;48.540;9.268;2023-09-19T03:20:57;6.03;;;2.80;;
2320;SDS011;15376;48.540;9.268;2023-09-19T03:23:25;3.30;;;2.50;;
2320;SDS011;15376;48.540;9.268;2023-09-19T03:25:51;4.93;;;2.40;;
2320;SDS011;15376;48.540;9.268;2023-09-19T03:28:17;3.73;;;2.77;;
2320;SDS011;15376;48.540;9.268;2023-09-19T03:30:43;2.50;;;2.30;;
2320;SDS011;15376;48.540;9.268;2023-09-19T03:33:09;2.53;;;2.33;;
2320;SDS011;15376;48.540;9.268;2023-09-19T03:35:37;2.97;;;2.47;;
2320;SDS011;15376;48.540;9.268;2023-09-19T03:38:03;3.10;;;2.23;;
2320;SDS011;15376;48.540;9.268;2023-09-19T03:40:29;4.03;;;2.30;;
2320;SDS011;15376;48.540;9.268;2023-09-19T03:42:55;3.03;;;2.60;;
2320;SDS011;15376;48.540;9.268;2023-09-19T03:45:20;3.80;;;2.37;;
2320;SDS011;15376;48.540;9.268;2023-09-19T03:47:46;5.53;;;2.87;;
2320;SDS011;15376;48.540;9.268;2023-09-19T03:50:14;3.03;;;2.40;;
2320;SDS011;15376;48.540;9.268;2023-09-19T03:52:45;2.30;;;2.10;;
2320;SDS011;15376;48.540;9.268;2023-09-19T03:55:10;3.40;;;2.23;;
2320;SDS011;15376;48.540;9.268;2023-09-19T03:57:37;2.47;;;2.20;;
2320;SDS011;15376;48.540;9.268;2023-09-19T04:00:03;4.47;;;2.60;;
2320;SDS011;15376;48.540;9.268;2023-09-19T04:02:30;3.40;;;2.00;;
2320;SDS011;15376;48.540;9.268;2023-09-19T04:04:58;3.73;;;2.40;;
2320;SDS011;15376;48.540;9.268;2023-09-19T04:07:23;3.13;;;2.40;;
2320;SDS011;15376;48.540;9.268;2023-09-19T04:09:51;3.83;;;2.40;;
2320;SDS011;15376;48.540;9.268;2023-09-19T04:12:18;2.77;;;2.57;;
2320;SDS011;15376;48.540;9.268;2023-09-19T04:14:44;2.80;;;2.60;;
2320;SDS011;15376;48.540;9.268;2023-09-19T04:17:09;3.03;;;2.20;;
2320;SDS011;15376;48.540;9.268;2023-09-19T04:19:35;5.63;;;2.73;;
2320;SDS011;15376;48.540;9.268;2023-09-19T04:22:01;2.30;;;2.10;;
2320;SDS011;15376;48.540;9.268;2023-09-19T04:24:27;3.67;;;2.57;;
2320;SDS011;15376;48.540;9.268;2023-09-19T04:26:52;3.37;;;2.60;;
2320;SDS011;15376;48.540;9.268;2023-09-19T04:29:17;3.70;;;2.97;;
2320;SDS011;15376;48.540;9.268;2023-09-19T04:31:44;3.50;;;3.20;;
2320;SDS011;15376;48.540;9.268;2023-09-19T04:34:11;5.43;;;2.60;;
2320;SDS011;15376;48.540;9.268;2023-09-19T04:36:42;4.20;;;2.57;;
2320;SDS011;15376;48.540;9.268;2023-09-19T04:39:08;3.20;;;2.60;;
2320;SDS011;15376;48.540;9.268;2023-09-19T04:41:35;6.73;;;2.70;;
2320;SDS011;15376;48.540;9.268;2023-09-19T04:44:04;3.83;;;2.60;;
2320;SDS011;15376;48.540;9.268;2023-09-19T04:46:30;3.30;;;2.67;;
2320;SDS011;15376;48.540;9.268;2023-09-19T04:48:55;4.30;;;2.80;;
2320;SDS011;15376;48.540;9.268;2023-09-19T04:51:21;2.60;;;2.40;;
2320;SDS011;15376;48.540;9.268;2023-09-19T04:53:46;5.13;;;3.23;;
2320;SDS011;15376;48.540;9.268;2023-09-19T04:56:12;4.17;;;2.93;;
2320;SDS011;15376;48.540;9.268;2023-09-19T04:58:38;3.33;;;3.00;;
2320;SDS011;15376;48.540;9.268;2023-09-19T05:01:03;4.37;;;3.20;;
2320;SDS011;15376;48.540;9.268;2023-09-19T05:03:29;4.53;;;3.40;;
2320;SDS011;15376;48.540;9.268;2023-09-19T05:05:54;6.70;;;3.40;;
2320;SDS011;15376;48.540;9.268;2023-09-19T05:08:20;7.17;;;3.37;;
2320;SDS011;15376;48.540;9.268;2023-09-19T05:10:47;4.00;;;2.80;;
2320;SDS011;15376;48.540;9.268;2023-09-19T05:13:12;4.43;;;3.43;;
2320;SDS011;15376;48.540;9.268;2023-09-19T05:15:38;4.27;;;2.90;;
2320;SDS011;15376;48.540;9.268;2023-09-19T05:18:04;3.90;;;3.23;;
2320;SDS011;15376;48.540;9.268;2023-09-19T05:20:30;4.53;;;3.10;;
2320;SDS011;15376;48.540;9.268;2023-09-19T05:22:59;2.83;;;2.63;;
2320;SDS011;15376;48.540;9.268;2023-09-19T05:25:33;3.43;;;2.77;;
2320;SDS011;15376;48.540;9.268;2023-09-19T05:28:04;3.87;;;2.70;;
2320;SDS011;15376;48.540;9.268;2023-09-19T05:30:33;3.63;;;2.77;;
2320;SDS011;15376;48.540;9.268;2023-09-19T05:33:01;2.37;;;2.20;;
2320;SDS011;15376;48.540;9.268;2023-09-19T05:35:27;3.10;;;2.40;;
2320;SDS011;15376;48.540;9.268;2023-09-19T05:37:52;3.00;;;2.80;;
2320;SDS011;15376;48.540;9.268;2023-09-19T05:40:20;4.07;;;3.33;;
2320;SDS011;15376;48.540;9.268;2023-09-19T05:42:45;3.70;;;2.90;;
2320;SDS011;15376;48.540;9.268;2023-09-19T05:45:12;5.03;;;2.73;;
2320;SDS011;15376;48.540;9.268;2023-09-19T05:47:41;3.20;;;2.53;;
2320;SDS011;15376;48.540;9.268;2023-09-19T05:50:08;5.90;;;3.10;;
2320;SDS011;15376;48.540;9.268;2023-09-19T05:52:34;3.40;;;2.50;;
2320;SDS011;15376;48.540;9.268;2023-09-19T05:55:02;2.83;;;2.53;;
2320;SDS011;15376;48.540;9.268;2023-09-19T05:57:32;3.30;;;2.97;;
2320;SDS011;15376;48.540;9.268;2023-09-19T05:59:59;7.80;;;2.70;;
2320;SDS011;15376;48.540;9.268;2023-09-19T06:02:24;3.30;;;2.77;;
2320;SDS011;15376;48.540;9.268;2023-09-19T06:04:53;3.53;;;2.90;;
2320;SDS011;15376;48.540;9.268;2023-09-19T06:07:20;2.80;;;2.60;;
2320;SDS011;15376;48.540;9.268;2023-09-19T06:09:47;2.80;;;2.60;;
2320;SDS011;15376;48.540;9.268;2023-09-19T06:12:12;4.00;;;2.53;;
2320;SDS011;15376;48.540;9.268;2023-09-19T06:14:42;5.87;;;2.50;;
2320;SDS011;15376;48.540;9.268;2023-09-19T06:17:08;3.20;;;2.77;;
2320;SDS011;15376;48.540;9.268;2023-09-19T06:19:34;3.33;;;2.17;;
2320;SDS011;15376;48.540;9.268;2023-09-19T06:21:59;2.63;;;1.77;;
2320;SDS011;15376;48.540;9.268;2023-09-19T06:24:25;3.03;;;2.10;;
2320;SDS011;15376;48.540;9.268;2023-09-19T06:26:50;3.57;;;2.30;;
2320;SDS011;15376;48.540;9.268;2023-09-19T06:29:17;3.90;;;1.90;;
2320;SDS011;15376;48.540;9.268;2023-09-19T06:31:43;2.50;;;2.30;;
2320;SDS011;15376;48.540;9.268;2023-09-19T06:34:09;3.10;;;2.80;;
2320;SDS011;15376;48.540;9.268;2023-09-19T06:36:35;3.23;;;2.23;;
2320;SDS011;15376;48.540;9.268;2023-09-19T06:39:00;4.30;;;2.20;;
2320;SDS011;15376;48.540;9.268;2023-09-19T06:41:25;4.10;;;2.10;;
2320;SDS011;15376;48.540;9.268;2023-09-19T06:43:51;2.10;;;1.90;;
2320;SDS011;15376;48.540;9.268;2023-09-19T06:46:19;1.93;;;1.77;;
2320;SDS011;15376;48.540;9.268;2023-09-19T06:48:44;2.77;;;2.50;;
2320;SDS011;15376;48.540;9.268;2023-09-19T06:51:12;2.13;;;1.97;;
2320;SDS011;15376;48.540;9.268;2023-09-19T06:53:40;1.77;;;1.67;;
2320;SDS011;15376;48.540;9.268;2023-09-19T06:56:06;1.87;;;1.77;;
2320;SDS011;15376;48.540;9.268;2023-09-19T06:58:31;2.07;;;1.73;;
2320;SDS011;15376;48.540;9.268;2023-09-19T07:00:56;2.03;;;1.83;;
2320;SDS011;15376;48.540;9.268;2023-09-19T07:03:22;2.30;;;1.67;;
2320;SDS011;15376;48.540;9.268;2023-09-19T07:05:50;3.70;;;1.80;;
2320;SDS011;15376;48.540;9.268;2023-09-19T07:08:16;1.80;;;1.63;;
2320;SDS011;15376;48.540;9.268;2023-09-19T07:10:41;1.97;;;1.70;;
2320;SDS011;15376;48.540;9.268;2023-09-19T07:13:13;2.77;;;1.40;;
2320;SDS011;15376;48.540;9.268;2023-09-19T07:15:41;1.73;;;1.63;;
2320;SDS011;15376;48.540;9.268;2023-09-19T07:18:12;3.27;;;1.60;;
2320;SDS011;15376;48.540;9.268;2023-09-19T07:20:41;2.10;;;1.90;;
2320;SDS011;15376;48.540;9.268;2023-09-19T07:23:14;2.63;;;1.77;;
2320;SDS011;15376;48.540;9.268;2023-09-19T07:25:43;2.23;;;1.80;;
2320;SDS011;15376;48.540;9.268;2023-09-19T07:28:08;2.30;;;2.10;;
2320;SDS011;15376;48.540;9.268;2023-09-19T07:30:35;2.20;;;1.80;;
2320;SDS011;15376;48.540;9.268;2023-09-19T07:33:02;3.80;;;1.90;;
2320;SDS011;15376;48.540;9.268;2023-09-19T07:35:30;2.00;;;1.83;;
2320;SDS011;15376;48.540;9.268;2023-09-19T07:37:55;4.43;;;1.90;;
2320;SDS011;15376;48.540;9.268;2023-09-19T07:40:21;2.73;;;1.90;;
2320;SDS011;15376;48.540;9.268;2023-09-19T07:42:49;2.00;;;1.80;;
2320;SDS011;15376;48.540;9.268;2023-09-19T07:45:15;1.70;;;1.60;;
2320;SDS011;15376;48.540;9.268;2023-09-19T07:47:48;2.30;;;1.60;;
2320;SDS011;15376;48.540;9.268;2023-09-19T07:50:15;1.80;;;1.60;;
2320;SDS011;15376;48.540;9.268;2023-09-19T07:52:43;2.70;;;1.70;;
2320;SDS011;15376;48.540;9.268;2023-09-19T07:55:09;2.40;;;1.40;;
2320;SDS011;15376;48.540;9.268;2023-09-19T07:57:36;2.87;;;1.80;;
2320;SDS011;15376;48.540;9.268;2023-09-19T08:00:03;2.73;;;1.60;;
2320;SDS011;15376;48.540;9.268;2023-09-19T08:02:38;2.40;;;1.20;;
2320;SDS011;15376;48.540;9.268;2023-09-19T08:05:05;1.53;;;1.43;;
2320;SDS011;15376;48.540;9.268;2023-09-19T08:07:32;4.80;;;1.80;;
2320;SDS011;15376;48.540;9.268;2023-09-19T08:09:57;6.60;;;1.43;;
2320;SDS011;15376;48.540;9.268;2023-09-19T08:12:23;2.20;;;1.50;;
2320;SDS011;15376;48.540;9.268;2023-09-19T08:14:49;5.20;;;1.80;;
2320;SDS011;15376;48.540;9.268;2023-09-19T08:17:15;1.37;;;1.27;;
2320;SDS011;15376;48.540;9.268;2023-09-19T08:19:41;3.10;;;1.40;;
2320;SDS011;15376;48.540;9.268;2023-09-19T08:22:07;3.93;;;1.80;;
2320;SDS011;15376;48.540;9.268;2023-09-19T08:24:35;2.60;;;1.60;;
2320;SDS011;15376;48.540;9.268;2023-09-19T08:27:01;1.87;;;1.70;;
2320;SDS011;15376;48.540;9.268;2023-09-19T08:29:29;1.80;;;1.60;;
2320;SDS011;15376;48.540;9.268;2023-09-19T08:31:55;1.30;;;1.20;;
2320;SDS011;15376;48.540;9.268;2023-09-19T08:34:24;3.30;;;1.53;;
2320;SDS011;15376;48.540;9.268;2023-09-19T08:36:54;1.70;;;1.53;;
2320;SDS011;15376;48.540;9.268;2023-09-19T08:39:23;2.00;;;1.80;;
2320;SDS011;15376;48.540;9.268;2023-09-19T08:41:49;2.20;;;1.50;;
2320;SDS011;15376;48.540;9.268;2023-09-19T08:44:14;1.90;;;1.37;;
2320;SDS011;15376;48.540;9.268;2023-09-19T08:46:41;1.60;;;1.50;;
2320;SDS011;15376;48.540;9.268;2023-09-19T08:49:19;1.60;;;1.50;;
2320;SDS011;15376;48.540;9.268;2023-09-19T08:52:25;2.87;;;1.30;;
2320;SDS011;15376;48.540;9.268;2023-09-19T08:54:53;2.63;;;1.20;;
2320;SDS011;15376;48.540;9.268;2023-09-19T08:57:27;2.60;;;1.40;;
2320;SDS011;15376;48.540;9.268;2023-09-19T08:59:54;2.33;;;1.83;;
2320;SDS011;15376;48.540;9.268;2023-09-19T09:02:21;1.77;;;1.63;;
2320;SDS011;15376;48.540;9.268;2023-09-19T09:04:48;1.53;;;1.40;;
2320;SDS011;15376;48.540;9.268;2023-09-19T09:07:15;1.60;;;1.40;;
2320;SDS011;15376;48.540;9.268;2023-09-19T09:09:42;3.40;;;1.40;;
2320;SDS011;15376;48.540;9.268;2023-09-19T09:12:12;2.30;;;1.77;;
2320;SDS011;15376;48.540;9.268;2023-09-19T09:14:47;1.50;;;1.40;;
2320;SDS011;15376;48.540;9.268;2023-09-19T09:17:14;1.60;;;1.50;;
2320;SDS011;15376;48.540;9.268;2023-09-19T09:19:41;2.70;;;1.60;;
2320;SDS011;15376;48.540;9.268;2023-09-19T09:22:10;2.53;;;1.50;;
2320;SDS011;15376;48.540;9.268;2023-09-19T09:24:37;3.90;;;1.40;;
2320;SDS011;15376;48.540;9.268;2023-09-19T09:27:15;2.00;;;1.63;;
2320;SDS011;15376;48.540;9.268;2023-09-19T09:29:42;2.23;;;1.43;;
2320;SDS011;15376;48.540;9.268;2023-09-19T09:32:27;2.63;;;1.50;;
2320;SDS011;15376;48.540;9.268;2023-09-19T09:37:23;1.20;;;1.10;;
2320;SDS011;15376;48.540;9.268;2023-09-19T09:39:57;2.33;;;1.50;;
2320;SDS011;15376;48.540;9.268;2023-09-19T09:45:17;1.40;;;1.30;;
2320;SDS011;15376;48.540;9.268;2023-09-19T09:48:14;1.40;;;1.30;;
2320;SDS011;15376;48.540;9.268;2023-09-19T09:50:46;1.60;;;1.50;;
2320;SDS011;15376;48.540;9.268;2023-09-19T09:58:30;2.60;;;1.50;;
2320;SDS011;15376;48.540;9.268;2023-09-19T10:00:57;4.23;;;1.40;;
2320;SDS011;15376;48.540;9.268;2023-09-19T10:03:31;1.40;;;1.30;;
2320;SDS011;15376;48.540;9.268;2023-09-19T10:06:09;2.97;;;1.17;;
2320;SDS011;15376;48.540;9.268;2023-09-19T10:09:07;2.33;;;1.70;;
2320;SDS011;15376;48.540;9.268;2023-09-19T10:11:46;1.60;;;1.50;;
2320;SDS011;15376;48.540;9.268;2023-09-19T10:14:22;1.80;;;1.60;;
2320;SDS011;15376;48.540;9.268;2023-09-19T10:16:56;6.00;;;1.60;;
2320;SDS011;15376;48.540;9.268;2023-09-19T10:19:29;1.43;;;1.20;;
2320;SDS011;15376;48.540;9.268;2023-09-19T10:22:01;1.50;;;1.40;;
2320;SDS011;15376;48.540;9.268;2023-09-19T10:24:27;3.00;;;1.70;;
2320;SDS011;15376;48.540;9.268;2023-09-19T10:26:56;5.37;;;1.40;;
2320;SDS011;15376;48.540;9.268;2023-09-19T10:29:22;2.50;;;1.87;;
2320;SDS011;15376;48.540;9.268;2023-09-19T10:31:51;1.73;;;1.60;;
2320;SDS011;15376;48.540;9.268;2023-09-19T10:34:18;1.97;;;1.70;;
2320;SDS011;15376;48.540;9.268;2023-09-19T10:36:45;1.50;;;1.40;;
2320;SDS011;15376;48.540;9.268;2023-09-19T10:39:15;2.10;;;1.90;;
2320;SDS011;15376;48.540;9.268;2023-09-19T10:41:44;1.57;;;1.47;;
2320;SDS011;15376;48.540;9.268;2023-09-19T10:44:19;1.60;;;1.50;;
2320;SDS011;15376;48.540;9.268;2023-09-19T10:46:48;2.33;;;1.60;;
2320;SDS011;15376;48.540;9.268;2023-09-19T10:49:14;1.93;;;1.50;;
2320;SDS011;15376;48.540;9.268;2023-09-19T10:51:41;3.97;;;1.90;;
2320;SDS011;15376;48.540;9.268;2023-09-19T10:54:10;2.07;;;1.63;;
2320;SDS011;15376;48.540;9.268;2023-09-19T10:56:38;1.50;;;1.27;;
2320;SDS011;15376;48.540;9.268;2023-09-19T11:01:44;2.67;;;1.93;;
2320;SDS011;15376;48.540;9.268;2023-09-19T11:04:30;1.63;;;1.50;;
2320;SDS011;15376;48.540;9.268;2023-09-19T11:15:06;1.90;;;1.80;;
2320;SDS011;15376;48.540;9.268;2023-09-19T11:17:37;3.20;;;1.70;;
2320;SDS011;15376;48.540;9.268;2023-09-19T11:30:40;2.03;;;1.80;;
2320;SDS011;15376;48.540;9.268;2023-09-19T11:36:10;1.53;;;1.43;;
2320;SDS011;15376;48.540;9.268;2023-09-19T11:43:53;2.10;;;1.40;;
2320;SDS011;15376;48.540;9.268;2023-09-19T11:49:16;2.93;;;1.60;;
2320;SDS011;15376;48.540;9.268;2023-09-19T11:51:45;1.67;;;1.57;;
2320;SDS011;15376;48.540;9.268;2023-09-19T11:54:12;1.90;;;1.70;;
2320;SDS011;15376;48.540;9.268;2023-09-19T11:56:43;1.40;;;1.30;;
2320;SDS011;15376;48.540;9.268;2023-09-19T11:59:10;1.63;;;1.40;;
2320;SDS011;15376;48.540;9.268;2023-09-19T12:01:35;2.77;;;1.50;;
2320;SDS011;15376;48.540;9.268;2023-09-19T12:04:05;1.73;;;1.50;;
2320;SDS011;15376;48.540;9.268;2023-09-19T12:06:36;3.00;;;1.70;;
2320;SDS011;15376;48.540;9.268;2023-09-19T12:09:03;2.10;;;1.90;;
2320;SDS011;15376;48.540;9.268;2023-09-19T12:11:32;1.53;;;1.30;;
2320;SDS011;15376;48.540;9.268;2023-09-19T12:13:58;1.60;;;1.50;;
2320;SDS011;15376;48.540;9.268;2023-09-19T12:16:26;5.20;;;1.60;;
2320;SDS011;15376;48.540;9.268;2023-09-19T12:18:55;1.70;;;1.40;;
2320;SDS011;15376;48.540;9.268;2023-09-19T12:21:31;1.87;;;1.67;;
2320;SDS011;15376;48.540;9.268;2023-09-19T12:24:13;3.07;;;1.83;;
2320;SDS011;15376;48.540;9.268;2023-09-19T12:26:47;1.60;;;1.50;;
2320;SDS011;15376;48.540;9.268;2023-09-19T12:29:19;1.57;;;1.47;;
2320;SDS011;15376;48.540;9.268;2023-09-19T12:34:23;1.70;;;1.30;;
2320;SDS011;15376;48.540;9.268;2023-09-19T12:39:44;2.53;;;1.50;;
2320;SDS011;15376;48.540;9.268;2023-09-19T12:42:25;1.80;;;1.50;;
2320;SDS011;15376;48.540;9.268;2023-09-19T12:44:57;2.83;;;1.60;;
2320;SDS011;15376;48.540;9.268;2023-09-19T12:47:26;1.77;;;1.67;;
2320;SDS011;15376;48.540;9.268;2023-09-19T12:52:48;2.00;;;1.80;;
2320;SDS011;15376;48.540;9.268;2023-09-19T12:55:21;3.57;;;1.40;;
2320;SDS011;15376;48.540;9.268;2023-09-19T12:57:57;2.70;;;1.50;;
2320;SDS011;15376;48.540;9.268;2023-09-19T13:00:33;1.53;;;1.43;;
2320;SDS011;15376;48.540;9.268;2023-09-19T13:06:05;2.17;;;1.70;;
2320;SDS011;15376;48.540;9.268;2023-09-19T13:08:37;3.77;;;1.73;;
2320;SDS011;15376;48.540;9.268;2023-09-19T13:11:10;2.60;;;1.77;;
2320;SDS011;15376;48.540;9.268;2023-09-19T13:13:37;3.00;;;2.10;;
2320;SDS011;15376;48.540;9.268;2023-09-19T13:16:21;2.77;;;1.50;;
2320;SDS011;15376;48.540;9.268;2023-09-19T13:18:53;2.33;;;1.60;;
2320;SDS011;15376;48.540;9.268;2023-09-19T13:21:34;3.83;;;1.50;;
2320;SDS011;15376;48.540;9.268;2023-09-19T13:24:23;2.07;;;1.83;;
2320;SDS011;15376;48.540;9.268;2023-09-19T13:26:55;3.90;;;1.93;;
2320;SDS011;15376;48.540;9.268;2023-09-19T13:29:21;14.03;;;1.80;;
2320;SDS011;15376;48.540;9.268;2023-09-19T13:31:47;1.67;;;1.40;;
2320;SDS011;15376;48.540;9.268;2023-09-19T13:34:14;1.90;;;1.70;;
2320;SDS011;15376;48.540;9.268;2023-09-19T13:36:41;2.27;;;1.50;;
2320;SDS011;15376;48.540;9.268;2023-09-19T13:39:07;5.03;;;1.30;;
2320;SDS011;15376;48.540;9.268;2023-09-19T13:41:34;1.97;;;1.40;;
2320;SDS011;15376;48.540;9.268;2023-09-19T13:44:01;1.60;;;1.50;;
2320;SDS011;15376;48.540;9.268;2023-09-19T13:46:30;1.93;;;1.80;;
2320;SDS011;15376;48.540;9.268;2023-09-19T13:48:58;3.43;;;1.97;;
2320;SDS011;15376;48.540;9.268;2023-09-19T13:51:25;1.67;;;1.50;;
2320;SDS011;15376;48.540;9.268;2023-09-19T13:53:51;3.43;;;1.50;;
2320;SDS011;15376;48.540;9.268;2023-09-19T13:56:16;3.73;;;2.00;;
2320;SDS011;15376;48.540;9.268;2023-09-19T13:58:42;3.27;;;1.80;;
2320;SDS011;15376;48.540;9.268;2023-09-19T14:01:07;2.27;;;2.07;;
2320;SDS011;15376;48.540;9.268;2023-09-19T14:03:38;1.80;;;1.63;;
2320;SDS011;15376;48.540;9.268;2023-09-19T14:06:04;1.87;;;1.67;;
2320;SDS011;15376;48.540;9.268;2023-09-19T14:08:30;1.93;;;1.73;;
2320;SDS011;15376;48.540;9.268;2023-09-19T14:10:55;3.10;;;1.70;;
2320;SDS011;15376;48.540;9.268;2023-09-19T14:13:21;4.47;;;2.10;;
2320;SDS011;15376;48.540;9.268;2023-09-19T14:15:46;4.23;;;1.80;;
2320;SDS011;15376;48.540;9.268;2023-09-19T14:18:12;2.30;;;1.57;;
2320;SDS011;15376;48.540;9.268;2023-09-19T14:20:38;2.57;;;2.30;;
2320;SDS011;15376;48.540;9.268;2023-09-19T14:23:05;1.70;;;1.60;;
2320;SDS011;15376;48.540;9.268;2023-09-19T14:25:31;1.60;;;1.50;;
2320;SDS011;15376;48.540;9.268;2023-09-19T14:27:59;1.70;;;1.60;;
2320;SDS011;15376;48.540;9.268;2023-09-19T14:30:24;2.00;;;1.90;;
2320;SDS011;15376;48.540;9.268;2023-09-19T14:32:50;2.00;;;1.90;;
2320;SDS011;15376;48.540;9.268;2023-09-19T14:35:16;1.67;;;1.57;;
2320;SDS011;15376;48.540;9.268;2023-09-19T14:37:41;2.33;;;1.73;;
2320;SDS011;15376;48.540;9.268;2023-09-19T14:40:07;1.70;;;1.60;;
2320;SDS011;15376;48.540;9.268;2023-09-19T14:42:34;3.10;;;1.87;;
2320;SDS011;15376;48.540;9.268;2023-09-19T14:45:05;1.70;;;1.53;;
2320;SDS011;15376;48.540;9.268;2023-09-19T14:47:32;1.60;;;1.50;;
2320;SDS011;15376;48.540;9.268;2023-09-19T14:49:59;2.03;;;1.57;;
2320;SDS011;15376;48.540;9.268;2023-09-19T14:52:26;2.00;;;1.60;;
2320;SDS011;15376;48.540;9.268;2023-09-19T14:54:53;2.07;;;1.73;;
2320;SDS011;15376;48.540;9.268;2023-09-19T14:57:18;2.70;;;1.57;;
2320;SDS011;15376;48.540;9.268;2023-09-19T14:59:44;1.90;;;1.70;;
2320;SDS011;15376;48.540;9.268;2023-09-19T15:02:09;1.70;;;1.60;;
2320;SDS011;15376;48.540;9.268;2023-09-19T15:04:34;2.07;;;1.87;;
2320;SDS011;15376;48.540;9.268;2023-09-19T15:07:00;2.60;;;1.87;;
2320;SDS011;15376;48.540;9.268;2023-09-19T15:09:25;2.03;;;1.83;;
2320;SDS011;15376;48.540;9.268;2023-09-19T15:11:52;3.40;;;1.60;;
2320;SDS011;15376;48.540;9.268;2023-09-19T15:14:18;2.80;;;1.77;;
2320;SDS011;15376;48.540;9.268;2023-09-19T15:16:43;2.87;;;1.80;;
2320;SDS011;15376;48.540;9.268;2023-09-19T15:19:09;4.17;;;1.50;;
2320;SDS011;15376;48.540;9.268;2023-09-19T15:21:35;2.40;;;1.73;;
2320;SDS011;15376;48.540;9.268;2023-09-19T15:24:02;3.20;;;1.67;;
2320;SDS011;15376;48.540;9.268;2023-09-19T15:26:28;4.63;;;1.93;;
2320;SDS011;15376;48.540;9.268;2023-09-19T15:28:54;2.30;;;1.50;;
2320;SDS011;15376;48.540;9.268;2023-09-19T15:31:20;1.63;;;1.53;;
2320;SDS011;15376;48.540;9.268;2023-09-19T15:33:45;3.27;;;2.10;;
2320;SDS011;15376;48.540;9.268;2023-09-19T15:36:11;2.20;;;1.87;;
2320;SDS011;15376;48.540;9.268;2023-09-19T15:41:37;2.33;;;1.83;;
2320;SDS011;15376;48.540;9.268;2023-09-19T15:44:04;2.00;;;1.50;;
2320;SDS011;15376;48.540;9.268;2023-09-19T15:46:35;1.53;;;1.43;;
2320;SDS011;15376;48.540;9.268;2023-09-19T15:49:01;2.20;;;1.60;;
2320;SDS011;15376;48.540;9.268;2023-09-19T15:51:28;2.03;;;1.83;;
2320;SDS011;15376;48.540;9.268;2023-09-19T15:53:54;2.27;;;1.80;;
2320;SDS011;15376;48.540;9.268;2023-09-19T15:56:25;2.90;;;1.47;;
2320;SDS011;15376;48.540;9.268;2023-09-19T15:58:52;3.57;;;2.07;;
2320;SDS011;15376;48.540;9.268;2023-09-19T16:01:22;2.20;;;1.70;;
2320;SDS011;15376;48.540;9.268;2023-09-19T16:03:49;2.23;;;2.00;;
2320;SDS011;15376;48.540;9.268;2023-09-19T16:06:18;2.10;;;1.90;;
2320;SDS011;15376;48.540;9.268;2023-09-19T16:08:48;1.90;;;1.70;;
2320;SDS011;15376;48.540;9.268;2023-09-19T16:11:15;4.03;;;1.80;;
2320;SDS011;15376;48.540;9.268;2023-09-19T16:13:42;1.57;;;1.47;;
2320;SDS011;15376;48.540;9.268;2023-09-19T16:16:09;2.30;;;1.80;;
2320;SDS011;15376;48.540;9.268;2023-09-19T16:18:38;2.70;;;1.70;;